createdAt,value
2018-07-04T00:00:44.595Z,100802.58
2018-07-04T00:03:24.233Z,100796.17
2018-07-04T00:06:03.855Z,100799.97
2018-07-04T00:08:43.643Z,100803.09
2018-07-04T00:11:23.124Z,100800.55
2018-07-04T00:14:02.643Z,100797.14
2018-07-04T00:16:42.245Z,100799.05
2018-07-04T00:19:21.939Z,100799.05
2018-07-04T00:22:01.674Z,100801.27
2018-07-04T00:24:41.408Z,100797.75
2018-07-04T00:27:21.203Z,100797.35
2018-07-04T00:30:00.873Z,100794.86
2018-07-04T00:32:40.533Z,100793.28
2018-07-04T00:35:20.272Z,100790.63
2018-07-04T00:37:59.927Z,100794.16
2018-07-04T00:40:39.504Z,100791.74
2018-07-04T00:43:19.252Z,100787.03
2018-07-04T00:45:58.960Z,100780.52
2018-07-04T00:48:38.691Z,100784.55
2018-07-04T00:51:18.328Z,100790.27
2018-07-04T00:53:57.988Z,100784.31
2018-07-04T00:56:37.615Z,100786.78
2018-07-04T00:59:17.152Z,100780.88
2018-07-04T01:01:56.894Z,100783.49
2018-07-04T01:04:36.503Z,100782.70
2018-07-04T01:07:16.029Z,100786.69
2018-07-04T01:09:55.721Z,100785.78
2018-07-04T01:12:35.401Z,100775.92
2018-07-04T01:15:15.000Z,100772.41
2018-07-04T01:17:54.727Z,100781.19
2018-07-04T01:21:39.499Z,100780.73
2018-07-04T01:24:19.054Z,100780.22
2018-07-04T01:26:58.701Z,100773.19
2018-07-04T01:29:38.370Z,100765.83
2018-07-04T01:32:18.056Z,100763.61
2018-07-04T01:34:57.639Z,100760.55
2018-07-04T01:37:37.115Z,100751.38
2018-07-04T01:40:17.175Z,100753.08
2018-07-04T01:42:56.850Z,100759.25
2018-07-04T01:45:36.533Z,100756.38
2018-07-04T01:48:16.384Z,100751.63
2018-07-04T01:50:56.032Z,100748.98
2018-07-04T01:53:35.729Z,100748.07
2018-07-04T01:56:15.500Z,100741.34
2018-07-04T01:58:55.241Z,100750.39
2018-07-04T02:04:07.897Z,100744.16
2018-07-04T02:06:47.604Z,100744.45
2018-07-04T02:09:27.160Z,100741.61
2018-07-04T02:12:06.786Z,100739.72
2018-07-04T02:14:46.341Z,100746.41
2018-07-04T02:17:25.954Z,100751.98
2018-07-04T02:20:05.610Z,100750.00
2018-07-04T02:22:45.250Z,100751.70
2018-07-04T02:25:24.922Z,100753.61
2018-07-04T02:28:04.640Z,100760.42
2018-07-04T02:30:44.212Z,100757.19
2018-07-04T02:33:23.896Z,100761.48
2018-07-04T02:36:03.473Z,100753.58
2018-07-04T02:38:43.068Z,100749.45
2018-07-04T02:41:22.609Z,100752.06
2018-07-04T02:44:02.214Z,100752.41
2018-07-04T02:46:41.902Z,100747.09
2018-07-04T02:49:22.221Z,100748.30
2018-07-04T02:52:01.683Z,100740.49
2018-07-04T02:54:41.463Z,100738.89
2018-07-04T02:57:21.020Z,100738.36
2018-07-04T03:00:00.682Z,100740.16
2018-07-04T03:02:40.314Z,100739.03
2018-07-04T03:05:19.976Z,100734.98
2018-07-04T03:07:59.739Z,100739.19
2018-07-04T03:10:39.112Z,100735.05
2018-07-04T03:13:18.762Z,100738.69
2018-07-04T03:15:58.357Z,100739.73
2018-07-04T03:18:38.010Z,100742.89
2018-07-04T03:21:17.556Z,100742.98
2018-07-04T03:23:57.088Z,100737.28
2018-07-04T03:26:36.702Z,100740.42
2018-07-04T03:29:16.203Z,100735.91
2018-07-04T03:31:55.840Z,100737.09
2018-07-04T03:34:35.480Z,100732.30
2018-07-04T03:37:15.270Z,100734.89
2018-07-04T03:39:55.993Z,100734.69
2018-07-04T03:42:35.648Z,100734.42
2018-07-04T03:45:15.424Z,100737.66
2018-07-04T03:47:55.113Z,100731.75
2018-07-04T03:50:34.848Z,100731.08
2018-07-04T03:53:14.515Z,100732.24
2018-07-04T03:55:53.989Z,100732.60
2018-07-04T03:58:33.795Z,100729.11
2018-07-04T04:01:13.508Z,100725.79
2018-07-04T04:03:53.151Z,100730.71
2018-07-04T04:06:32.803Z,100735.52
2018-07-04T04:09:12.555Z,100738.64
2018-07-04T04:11:52.207Z,100736.18
2018-07-04T04:14:31.848Z,100739.39
2018-07-04T04:17:11.485Z,100736.09
2018-07-04T04:19:51.129Z,100742.36
2018-07-04T04:22:30.813Z,100732.78
2018-07-04T04:25:10.532Z,100742.72
2018-07-04T04:27:50.199Z,100737.48
2018-07-04T04:30:29.915Z,100740.40
2018-07-04T04:33:09.500Z,100737.31
2018-07-04T04:35:49.216Z,100735.97
2018-07-04T04:38:28.947Z,100741.96
2018-07-04T04:41:08.456Z,100748.45
2018-07-04T04:43:47.967Z,100753.03
2018-07-04T04:46:27.511Z,100750.20
2018-07-04T04:49:07.206Z,100747.70
2018-07-04T04:51:46.913Z,100749.58
2018-07-04T04:54:26.520Z,100747.66
2018-07-04T04:57:06.224Z,100753.66
2018-07-04T04:59:45.971Z,100749.81
2018-07-04T05:02:25.636Z,100752.75
2018-07-04T05:05:05.345Z,100750.47
2018-07-04T05:07:44.968Z,100749.53
2018-07-04T05:10:24.529Z,100749.94
2018-07-04T05:13:04.531Z,100749.80
2018-07-04T05:15:44.324Z,100751.16
2018-07-04T05:18:23.842Z,100692.68
2018-07-04T05:21:03.575Z,100749.66
2018-07-04T05:23:43.351Z,100745.63
2018-07-04T05:26:23.083Z,100739.38
2018-07-04T05:29:02.709Z,100738.30
2018-07-04T05:31:42.492Z,100732.06
2018-07-04T05:34:21.976Z,100739.27
2018-07-04T05:37:01.521Z,100738.37
2018-07-04T05:39:41.044Z,100729.88
2018-07-04T05:42:20.682Z,100737.21
2018-07-04T05:45:00.404Z,100737.38
2018-07-04T05:47:40.290Z,100739.39
2018-07-04T05:50:19.989Z,100730.78
2018-07-04T05:52:59.717Z,100727.73
2018-07-04T05:55:39.260Z,100727.23
2018-07-04T05:58:18.996Z,100726.53
2018-07-04T06:00:58.629Z,100728.05
2018-07-04T06:03:38.266Z,100735.69
2018-07-04T06:06:17.891Z,100725.98
2018-07-04T06:08:57.641Z,100728.37
2018-07-04T06:11:37.299Z,100730.26
2018-07-04T06:14:17.105Z,100732.66
2018-07-04T06:16:56.669Z,100731.86
2018-07-04T06:19:36.360Z,100731.34
2018-07-04T06:22:16.021Z,100725.48
2018-07-04T06:24:55.688Z,100722.89
2018-07-04T06:27:35.428Z,100728.96
2018-07-04T06:30:15.152Z,100718.22
2018-07-04T06:32:54.632Z,100716.23
2018-07-04T06:35:34.332Z,100717.37
2018-07-04T06:38:01.589Z,100718.56
2018-07-04T06:42:56.049Z,100720.44
2018-07-04T06:45:23.279Z,100719.45
2018-07-04T06:47:50.979Z,100710.22
2018-07-04T06:50:18.250Z,100710.43
2018-07-04T06:52:45.441Z,100711.99
2018-07-04T06:55:12.627Z,100713.52
2018-07-04T06:57:39.862Z,100704.23
2018-07-04T07:00:07.053Z,100710.60
2018-07-04T07:02:34.253Z,100716.05
2018-07-04T07:05:13.809Z,100711.56
2018-07-04T07:07:53.572Z,100717.51
2018-07-04T07:10:33.185Z,100713.39
2018-07-04T07:13:13.055Z,100716.73
2018-07-04T07:15:52.712Z,100718.89
2018-07-04T07:18:32.230Z,100713.73
2018-07-04T07:21:11.777Z,100714.64
2018-07-04T07:23:51.288Z,100712.77
2018-07-04T07:26:31.133Z,100716.10
2018-07-04T07:29:10.842Z,100711.14
2018-07-04T07:31:50.569Z,100718.14
2018-07-04T07:34:30.401Z,100714.42
2018-07-04T07:37:11.089Z,100717.21
2018-07-04T07:39:50.631Z,100711.74
2018-07-04T07:42:30.264Z,100710.77
2018-07-04T07:45:09.982Z,100704.70
2018-07-04T07:47:49.742Z,100706.92
2018-07-04T07:50:29.444Z,100699.61
2018-07-04T07:53:09.122Z,100700.12
2018-07-04T07:55:48.827Z,100698.30
2018-07-04T07:58:28.445Z,100692.69
2018-07-04T08:01:08.134Z,100704.38
2018-07-04T08:03:50.120Z,100694.77
2018-07-04T08:06:29.786Z,100691.70
2018-07-04T08:09:09.559Z,100690.00
2018-07-04T08:11:49.384Z,100691.37
2018-07-04T08:14:29.084Z,100694.05
2018-07-04T08:17:09.800Z,100697.38
2018-07-04T08:19:49.517Z,100700.03
2018-07-04T08:22:29.233Z,100696.45
2018-07-04T08:25:08.891Z,100700.44
2018-07-04T08:27:48.505Z,100698.80
2018-07-04T08:30:28.310Z,100700.62
2018-07-04T08:33:08.022Z,100697.63
2018-07-04T08:35:47.801Z,100702.72
2018-07-04T08:38:27.465Z,100704.87
2018-07-04T08:41:06.993Z,100701.41
2018-07-04T08:43:46.568Z,100699.25
2018-07-04T08:46:26.886Z,100692.50
2018-07-04T08:49:06.373Z,100692.49
2018-07-04T08:51:46.590Z,100701.02
2018-07-04T08:54:26.097Z,100702.42
2018-07-04T08:57:05.808Z,100701.03
2018-07-04T08:59:45.571Z,100699.97
2018-07-04T09:02:25.260Z,100705.40
2018-07-04T09:05:05.026Z,100701.86
2018-07-04T09:07:44.789Z,100711.03
2018-07-04T09:10:24.792Z,100711.69
2018-07-04T09:13:04.526Z,100715.55
2018-07-04T09:15:44.271Z,100716.55
2018-07-04T09:18:24.002Z,100721.31
2018-07-04T09:21:03.374Z,100722.80
2018-07-04T09:23:43.009Z,100729.03
2018-07-04T09:26:22.716Z,100721.02
2018-07-04T09:29:02.203Z,100728.48
2018-07-04T09:31:41.889Z,100736.44
2018-07-04T09:34:21.595Z,100740.75
2018-07-04T09:37:01.313Z,100739.90
2018-07-04T09:39:41.124Z,100745.48
2018-07-04T09:42:20.741Z,100753.51
2018-07-04T09:45:00.444Z,100748.48
2018-07-04T09:47:40.071Z,100752.69
2018-07-04T09:50:19.669Z,100757.52
2018-07-04T09:52:59.382Z,100760.98
2018-07-04T09:55:39.091Z,100764.08
2018-07-04T09:58:18.637Z,100768.01
2018-07-04T10:01:03.773Z,100760.78
2018-07-04T10:03:43.331Z,100758.44
2018-07-04T10:06:22.984Z,100759.98
2018-07-04T10:09:02.766Z,100755.91
2018-07-04T10:11:42.584Z,100752.75
2018-07-04T10:14:22.274Z,100754.94
2018-07-04T10:17:02.000Z,100751.05
2018-07-04T10:19:41.675Z,100749.74
2018-07-04T10:22:21.289Z,100757.22
2018-07-04T10:25:00.928Z,100749.82
2018-07-04T10:27:41.322Z,100746.89
2018-07-04T10:30:20.831Z,100748.20
2018-07-04T10:33:00.475Z,100746.96
2018-07-04T10:35:40.140Z,100749.13
2018-07-04T10:38:19.889Z,100738.64
2018-07-04T10:40:59.515Z,100739.66
2018-07-04T10:43:38.996Z,100734.77
2018-07-04T10:46:18.920Z,100732.69
2018-07-04T10:48:58.553Z,100732.61
2018-07-04T10:51:38.392Z,100724.60
2018-07-04T10:54:17.920Z,100724.33
2018-07-04T10:56:57.442Z,100726.33
2018-07-04T10:59:36.916Z,100720.71
2018-07-04T11:02:16.618Z,100718.74
2018-07-04T11:04:56.202Z,100716.97
2018-07-04T11:07:35.896Z,100703.20
2018-07-04T11:10:15.512Z,100695.71
2018-07-04T11:12:55.273Z,100693.31
2018-07-04T11:15:34.919Z,100693.66
2018-07-04T11:18:14.569Z,100687.32
2018-07-04T11:20:54.336Z,100683.16
2018-07-04T11:23:33.992Z,100687.87
2018-07-04T11:26:13.628Z,100685.99
2018-07-04T11:28:53.380Z,100680.47
2018-07-04T11:31:32.904Z,100681.39
2018-07-04T11:34:12.501Z,100679.45
2018-07-04T11:36:52.067Z,100675.82
2018-07-04T11:39:31.799Z,100669.59
2018-07-04T11:42:11.517Z,100674.30
2018-07-04T11:44:51.213Z,100677.22
2018-07-04T11:47:18.441Z,100678.27
2018-07-04T11:49:45.644Z,100673.36
2018-07-04T11:52:12.844Z,100682.22
2018-07-04T11:54:40.129Z,100683.00
2018-07-04T11:57:07.374Z,100689.56
2018-07-04T11:59:34.532Z,100693.34
2018-07-04T12:02:01.761Z,100695.52
2018-07-04T12:04:41.284Z,100689.69
2018-07-04T12:07:09.708Z,100695.90
2018-07-04T12:09:39.050Z,100694.36
2018-07-04T12:12:06.287Z,100691.83
2018-07-04T12:14:33.651Z,100689.73
2018-07-04T12:17:01.040Z,100683.38
2018-07-04T12:19:28.449Z,100677.99
2018-07-04T12:21:55.656Z,100682.32
2018-07-04T12:24:22.857Z,100680.09
2018-07-04T12:26:50.129Z,100685.22
2018-07-04T12:29:17.346Z,100685.22
2018-07-04T12:31:44.604Z,100688.79
2018-07-04T12:34:11.786Z,100683.63
2018-07-04T12:36:38.993Z,100685.31
2018-07-04T12:39:06.233Z,100685.40
2018-07-04T12:41:33.487Z,100686.44
2018-07-04T12:44:00.708Z,100698.09
2018-07-04T12:46:28.244Z,100695.97
2018-07-04T12:48:59.588Z,100695.48
2018-07-04T12:51:26.800Z,100701.91
2018-07-04T12:53:58.158Z,100700.41
2018-07-04T12:56:37.880Z,100702.27
2018-07-04T12:59:17.541Z,100695.33
2018-07-04T13:01:57.081Z,100692.41
2018-07-04T13:04:36.690Z,100690.43
2018-07-04T13:07:16.321Z,100685.09
2018-07-04T13:09:56.027Z,100681.89
2018-07-04T13:12:35.751Z,100674.47
2018-07-04T13:15:15.423Z,100672.22
2018-07-04T13:17:55.155Z,100671.29
2018-07-04T13:20:34.776Z,100663.30
2018-07-04T13:23:14.410Z,100678.70
2018-07-04T13:25:54.216Z,100676.92
2018-07-04T13:28:34.008Z,100678.23
2018-07-04T13:31:13.598Z,100675.70
2018-07-04T13:33:53.345Z,100675.88
2018-07-04T13:36:33.064Z,100679.35
2018-07-04T13:39:12.769Z,100677.28
2018-07-04T13:41:52.546Z,100677.80
2018-07-04T13:44:32.280Z,100689.33
2018-07-04T13:47:11.756Z,100689.33
2018-07-04T13:49:51.487Z,100683.99
2018-07-04T13:52:31.193Z,100685.39
2018-07-04T13:55:10.825Z,100684.92
2018-07-04T13:57:50.555Z,100685.39
2018-07-04T14:00:30.231Z,100688.31
2018-07-04T14:03:09.932Z,100684.37
2018-07-04T14:05:49.682Z,100690.88
2018-07-04T14:08:29.459Z,100685.63
2018-07-04T14:11:09.246Z,100681.69
2018-07-04T14:13:48.908Z,100686.01
2018-07-04T14:16:28.613Z,100682.27
2018-07-04T14:19:08.248Z,100689.13
2018-07-04T14:21:47.864Z,100678.61
2018-07-04T14:24:27.617Z,100684.02
2018-07-04T14:27:07.341Z,100684.24
2018-07-04T14:29:47.021Z,100682.09
2018-07-04T14:32:26.720Z,100681.54
2018-07-04T14:35:06.452Z,100676.10
2018-07-04T14:37:46.090Z,100671.55
2018-07-04T14:40:25.760Z,100674.74
2018-07-04T14:43:05.459Z,100670.05
2018-07-04T14:45:45.136Z,100663.77
2018-07-04T14:48:24.789Z,100657.48
2018-07-04T14:51:04.500Z,100659.86
2018-07-04T14:53:44.218Z,100658.08
2018-07-04T14:56:23.908Z,100656.30
2018-07-04T14:59:03.537Z,100653.58
2018-07-04T15:01:43.182Z,100646.06
2018-07-04T15:04:22.904Z,100641.56
2018-07-04T15:07:02.690Z,100636.67
2018-07-04T15:09:42.385Z,100634.23
2018-07-04T15:12:22.009Z,100636.86
2018-07-04T15:15:01.671Z,100634.20
2018-07-04T15:17:41.296Z,100634.20
2018-07-04T15:20:20.896Z,100626.87
2018-07-04T15:23:00.524Z,100631.28
2018-07-04T15:25:40.157Z,100630.81
2018-07-04T15:28:19.794Z,100631.98
2018-07-04T15:30:59.428Z,100627.47
2018-07-04T15:33:39.037Z,100622.41
2018-07-04T15:36:18.656Z,100625.03
2018-07-04T15:38:58.224Z,100621.68
2018-07-04T15:41:37.888Z,100621.96
2018-07-04T15:44:17.646Z,100613.32
2018-07-04T15:46:57.345Z,100620.83
2018-07-04T15:49:37.019Z,100621.86
2018-07-04T15:52:16.690Z,100618.45
2018-07-04T15:54:56.344Z,100619.96
2018-07-04T15:57:36.191Z,100615.64
2018-07-04T16:00:16.799Z,100622.37
2018-07-04T16:02:56.363Z,100619.93
2018-07-04T16:05:36.021Z,100617.58
2018-07-04T16:08:15.868Z,100614.95
2018-07-04T16:10:55.555Z,100624.63
2018-07-04T16:13:35.236Z,100616.83
2018-07-04T16:16:14.816Z,100621.34
2018-07-04T16:18:54.504Z,100615.42
2018-07-04T16:21:34.460Z,100621.34
2018-07-04T16:24:14.017Z,100618.05
2018-07-04T16:26:53.785Z,100618.05
2018-07-04T16:29:33.493Z,100623.87
2018-07-04T16:32:13.118Z,100622.55
2018-07-04T16:34:52.775Z,100619.55
2018-07-04T16:37:32.529Z,100621.61
2018-07-04T16:40:12.082Z,100621.70
2018-07-04T16:42:52.348Z,100611.66
2018-07-04T16:45:31.862Z,100609.79
2018-07-04T16:48:11.478Z,100604.16
2018-07-04T16:50:51.243Z,100602.13
2018-07-04T16:53:30.869Z,100600.21
2018-07-04T16:56:10.583Z,100602.28
2018-07-04T16:58:50.260Z,100600.05
2018-07-04T17:01:29.996Z,100594.80
2018-07-04T17:04:09.879Z,100591.88
2018-07-04T17:06:49.629Z,100586.25
2018-07-04T17:09:29.312Z,100583.90
2018-07-04T17:12:09.024Z,100576.60
2018-07-04T17:14:49.029Z,100576.60
2018-07-04T17:17:28.933Z,100571.34
2018-07-04T17:20:08.525Z,100571.88
2018-07-04T17:22:48.349Z,100570.03
2018-07-04T17:25:28.041Z,100576.04
2018-07-04T17:28:07.729Z,100569.09
2018-07-04T17:30:47.311Z,100563.08
2018-07-04T17:33:27.588Z,100565.05
2018-07-04T17:36:07.172Z,100554.23
2018-07-04T17:38:46.773Z,100557.44
2018-07-04T17:41:26.457Z,100559.14
2018-07-04T17:44:06.101Z,100562.39
2018-07-04T17:46:45.824Z,100559.30
2018-07-04T17:49:25.422Z,100560.06
2018-07-04T17:52:04.982Z,100555.53
2018-07-04T17:54:44.701Z,100556.84
2018-07-04T17:57:24.618Z,100567.33
2018-07-04T18:00:04.056Z,100561.03
2018-07-04T18:02:43.940Z,100557.75
2018-07-04T18:05:23.441Z,100552.63
2018-07-04T18:08:03.865Z,100554.23
2018-07-04T18:10:43.496Z,100550.11
2018-07-04T18:13:23.247Z,100548.22
2018-07-04T18:16:02.925Z,100549.16
2018-07-04T18:18:42.598Z,100554.98
2018-07-04T18:21:25.412Z,100561.63
2018-07-04T18:24:06.305Z,100563.13
2018-07-04T18:26:45.973Z,100561.00
2018-07-04T18:29:25.577Z,100557.34
2018-07-04T18:32:06.098Z,100560.41
2018-07-04T18:34:45.625Z,100559.44
2018-07-04T18:37:25.670Z,100561.70
2018-07-04T18:40:05.160Z,100571.79
2018-07-04T18:42:44.791Z,100566.38
2018-07-04T18:45:24.336Z,100572.95
2018-07-04T18:48:04.079Z,100568.07
2018-07-04T18:50:43.652Z,100577.05
2018-07-04T18:53:23.405Z,100574.98
2018-07-04T18:56:03.104Z,100568.19
2018-07-04T18:58:42.874Z,100574.74
2018-07-04T19:01:22.654Z,100573.39
2018-07-04T19:04:02.431Z,100569.06
2018-07-04T19:06:42.033Z,100569.24
2018-07-04T19:09:21.792Z,100572.80
2018-07-04T19:12:01.502Z,100572.02
2018-07-04T19:14:41.231Z,100564.03
2018-07-04T19:17:21.032Z,100558.49
2018-07-04T19:20:00.713Z,100564.67
2018-07-04T19:22:40.336Z,100567.95
2018-07-04T19:25:20.034Z,100574.75
2018-07-04T19:27:59.753Z,100581.87
2018-07-04T19:30:39.400Z,100591.79
2018-07-04T19:33:19.146Z,100593.83
2018-07-04T19:35:58.783Z,100590.59
2018-07-04T19:38:38.315Z,100591.84
2018-07-04T19:41:17.958Z,100595.11
2018-07-04T19:43:57.714Z,100600.20
2018-07-04T19:46:38.275Z,100607.40
2018-07-04T19:49:17.734Z,100603.34
2018-07-04T19:51:57.658Z,100599.95
2018-07-04T19:54:37.332Z,100601.44
2018-07-04T19:57:16.886Z,100602.13
2018-07-04T19:59:56.456Z,100608.01
2018-07-04T20:02:36.181Z,100615.20
2018-07-04T20:05:15.824Z,100611.66
2018-07-04T20:07:55.373Z,100602.73
2018-07-04T20:10:35.141Z,100586.31
2018-07-04T20:13:14.880Z,100579.44
2018-07-04T20:15:54.675Z,100582.47
2018-07-04T20:18:34.428Z,100584.16
2018-07-04T20:21:14.004Z,100584.58
2018-07-04T20:23:53.789Z,100583.42
2018-07-04T20:26:33.469Z,100581.27
2018-07-04T20:29:13.158Z,100583.12
2018-07-04T20:31:52.782Z,100581.97
2018-07-04T20:34:32.518Z,100576.81
2018-07-04T20:37:12.277Z,100569.16
2018-07-04T20:39:52.086Z,100562.77
2018-07-04T20:42:31.764Z,100556.38
2018-07-04T20:45:11.336Z,100553.92
2018-07-04T20:47:51.087Z,100554.85
2018-07-04T20:50:30.691Z,100555.94
2018-07-04T20:53:10.460Z,100563.54
2018-07-04T20:55:50.358Z,100565.29
2018-07-04T20:58:29.876Z,100570.66
2018-07-04T21:01:09.442Z,100575.28
2018-07-04T21:03:49.151Z,100573.56
2018-07-04T21:06:28.904Z,100578.25
2018-07-04T21:09:08.580Z,100571.25
2018-07-04T21:11:48.157Z,100579.48
2018-07-04T21:14:27.957Z,100579.48
2018-07-04T21:17:07.554Z,100582.25
2018-07-04T21:19:47.248Z,100585.68
2018-07-04T21:22:26.844Z,100590.22
2018-07-04T21:25:06.344Z,100591.59
2018-07-04T21:27:45.885Z,100593.74
2018-07-04T21:30:25.634Z,100605.39
2018-07-04T21:33:05.470Z,100612.66
2018-07-04T21:35:44.920Z,100620.13
2018-07-04T21:38:24.664Z,100622.58
2018-07-04T21:41:04.298Z,100625.76
2018-07-04T21:43:43.801Z,100625.83
2018-07-04T21:46:23.465Z,100628.66
2018-07-04T21:49:03.175Z,100640.59
2018-07-04T21:51:42.811Z,100642.82
2018-07-04T21:54:22.500Z,100645.44
2018-07-04T21:57:02.286Z,100639.50
2018-07-04T21:59:42.192Z,100639.43
2018-07-04T22:02:21.947Z,100633.56
2018-07-04T22:05:01.473Z,100643.17
2018-07-04T22:07:40.979Z,100638.59
2018-07-04T22:10:20.684Z,100645.97
2018-07-04T22:13:00.385Z,100638.27
2018-07-04T22:15:40.125Z,100640.78
2018-07-04T22:18:19.768Z,100636.72
2018-07-04T22:20:59.637Z,100634.63
2018-07-04T22:23:39.352Z,100637.24
2018-07-04T22:26:19.041Z,100637.45
2018-07-04T22:28:58.591Z,100632.44
2018-07-04T22:31:38.157Z,100623.00
2018-07-04T22:34:17.796Z,100626.67
2018-07-04T22:36:57.425Z,100625.83
2018-07-04T22:39:36.974Z,100622.89
2018-07-04T22:42:16.697Z,100621.79
2018-07-04T22:44:56.342Z,100623.20
2018-07-04T22:47:35.952Z,100624.68
2018-07-04T22:50:15.628Z,100625.09
2018-07-04T22:52:55.203Z,100617.32
2018-07-04T22:55:34.861Z,100621.34
2018-07-04T22:58:15.422Z,100612.20
2018-07-04T23:00:54.908Z,100605.14
2018-07-04T23:03:35.342Z,100602.34
2018-07-04T23:06:14.884Z,100606.92
2018-07-04T23:08:54.351Z,100603.44
2018-07-04T23:11:33.902Z,100604.55
2018-07-04T23:14:13.486Z,100609.16
2018-07-04T23:16:53.010Z,100610.45
2018-07-04T23:19:32.620Z,100610.06
2018-07-04T23:22:12.276Z,100612.19
2018-07-04T23:24:52.041Z,100608.66
2018-07-04T23:27:31.685Z,100605.14
2018-07-04T23:30:11.392Z,100599.00
2018-07-04T23:32:51.013Z,100609.77
2018-07-04T23:35:30.749Z,100607.13
2018-07-04T23:38:10.393Z,100606.48
2018-07-04T23:40:50.145Z,100605.44
2018-07-04T23:43:29.848Z,100606.87
2018-07-04T23:46:09.401Z,100609.28
2018-07-04T23:48:49.082Z,100606.61
2018-07-04T23:51:28.929Z,100598.39
2018-07-04T23:54:08.588Z,100591.80
2018-07-04T23:56:48.205Z,100592.32
2018-07-04T23:59:27.947Z,100588.80
